sensor_id;sensor_type;location;lat;lon;timestamp;P1;durP1;ratioP1;P2;durP2;ratioP2
75667;SDS011;64266;48.798;44.756;2023-01-01T00:00:04;8.23;;;3.80;;
75667;SDS011;64266;48.798;44.756;2023-01-01T00:02:35;7.28;;;4.10;;
75667;SDS011;64266;48.798;44.756;2023-01-01T00:05:02;9.82;;;4.10;;
75667;SDS011;64266;48.798;44.756;2023-01-01T00:07:29;7.97;;;3.92;;
75667;SDS011;64266;48.798;44.756;2023-01-01T00:09:55;8.38;;;3.90;;
75667;SDS011;64266;48.798;44.756;2023-01-01T00:12:40;8.48;;;3.47;;
75667;SDS011;64266;48.798;44.756;2023-01-01T00:15:05;9.73;;;4.13;;
75667;SDS011;64266;48.798;44.756;2023-01-01T00:17:32;9.77;;;4.30;;
75667;SDS011;64266;48.798;44.756;2023-01-01T00:19:58;8.65;;;3.90;;
75667;SDS011;64266;48.798;44.756;2023-01-01T00:22:26;9.50;;;3.75;;
75667;SDS011;64266;48.798;44.756;2023-01-01T00:24:51;12.48;;;4.15;;
75667;SDS011;64266;48.798;44.756;2023-01-01T00:27:18;8.40;;;3.92;;
75667;SDS011;64266;48.798;44.756;2023-01-01T00:29:44;7.68;;;3.85;;
75667;SDS011;64266;48.798;44.756;2023-01-01T00:32:10;9.77;;;3.65;;
75667;SDS011;64266;48.798;44.756;2023-01-01T00:34:37;8.90;;;4.22;;
75667;SDS011;64266;48.798;44.756;2023-01-01T00:37:04;9.82;;;3.60;;
75667;SDS011;64266;48.798;44.756;2023-01-01T00:39:30;8.98;;;3.70;;
75667;SDS011;64266;48.798;44.756;2023-01-01T00:41:55;8.75;;;4.22;;
75667;SDS011;64266;48.798;44.756;2023-01-01T00:44:21;7.68;;;3.20;;
75667;SDS011;64266;48.798;44.756;2023-01-01T00:46:47;9.00;;;3.53;;
75667;SDS011;64266;48.798;44.756;2023-01-01T00:49:13;7.97;;;3.50;;
75667;SDS011;64266;48.798;44.756;2023-01-01T00:51:38;8.38;;;3.85;;
75667;SDS011;64266;48.798;44.756;2023-01-01T00:54:04;8.63;;;3.58;;
75667;SDS011;64266;48.798;44.756;2023-01-01T00:56:31;7.32;;;3.92;;
75667;SDS011;64266;48.798;44.756;2023-01-01T00:58:56;9.18;;;4.25;;
75667;SDS011;64266;48.798;44.756;2023-01-01T01:01:23;9.85;;;3.50;;
75667;SDS011;64266;48.798;44.756;2023-01-01T01:03:49;7.75;;;3.47;;
75667;SDS011;64266;48.798;44.756;2023-01-01T01:06:15;7.65;;;3.58;;
75667;SDS011;64266;48.798;44.756;2023-01-01T01:08:44;7.80;;;3.63;;
75667;SDS011;64266;48.798;44.756;2023-01-01T01:11:15;11.13;;;4.60;;
75667;SDS011;64266;48.798;44.756;2023-01-01T01:13:43;7.95;;;3.70;;
75667;SDS011;64266;48.798;44.756;2023-01-01T01:16:15;7.55;;;3.50;;
75667;SDS011;64266;48.798;44.756;2023-01-01T01:18:43;9.32;;;3.92;;
75667;SDS011;64266;48.798;44.756;2023-01-01T01:21:13;7.95;;;3.70;;
75667;SDS011;64266;48.798;44.756;2023-01-01T01:23:41;10.98;;;3.97;;
75667;SDS011;64266;48.798;44.756;2023-01-01T01:26:15;9.15;;;3.95;;
75667;SDS011;64266;48.798;44.756;2023-01-01T01:28:42;8.68;;;3.50;;
75667;SDS011;64266;48.798;44.756;2023-01-01T01:31:08;9.35;;;3.58;;
75667;SDS011;64266;48.798;44.756;2023-01-01T01:33:35;7.00;;;3.40;;
75667;SDS011;64266;48.798;44.756;2023-01-01T01:36:01;7.82;;;3.80;;
75667;SDS011;64266;48.798;44.756;2023-01-01T01:38:28;7.70;;;3.25;;
75667;SDS011;64266;48.798;44.756;2023-01-01T01:40:54;9.70;;;3.90;;
75667;SDS011;64266;48.798;44.756;2023-01-01T01:43:21;6.60;;;2.88;;
75667;SDS011;64266;48.798;44.756;2023-01-01T01:45:54;7.65;;;3.03;;
75667;SDS011;64266;48.798;44.756;2023-01-01T01:48:23;8.20;;;3.30;;
75667;SDS011;64266;48.798;44.756;2023-01-01T01:50:49;6.57;;;3.33;;
75667;SDS011;64266;48.798;44.756;2023-01-01T01:53:22;9.30;;;3.72;;
75667;SDS011;64266;48.798;44.756;2023-01-01T01:56:05;7.47;;;3.05;;
75667;SDS011;64266;48.798;44.756;2023-01-01T01:58:35;7.10;;;2.90;;
75667;SDS011;64266;48.798;44.756;2023-01-01T02:01:01;5.97;;;3.03;;
75667;SDS011;64266;48.798;44.756;2023-01-01T02:03:48;7.00;;;2.72;;
75667;SDS011;64266;48.798;44.756;2023-01-01T02:06:21;6.13;;;2.80;;
75667;SDS011;64266;48.798;44.756;2023-01-01T02:08:48;5.68;;;2.60;;
75667;SDS011;64266;48.798;44.756;2023-01-01T02:11:15;5.22;;;2.13;;
75667;SDS011;64266;48.798;44.756;2023-01-01T02:13:41;5.63;;;2.88;;
75667;SDS011;64266;48.798;44.756;2023-01-01T02:16:11;6.47;;;2.50;;
75667;SDS011;64266;48.798;44.756;2023-01-01T02:21:19;7.80;;;2.88;;
75667;SDS011;64266;48.798;44.756;2023-01-01T02:26:50;6.38;;;2.88;;
75667;SDS011;64266;48.798;44.756;2023-01-01T02:29:30;6.43;;;2.72;;
75667;SDS011;64266;48.798;44.756;2023-01-01T02:37:23;7.65;;;3.50;;
75667;SDS011;64266;48.798;44.756;2023-01-01T02:39:54;6.75;;;3.17;;
75667;SDS011;64266;48.798;44.756;2023-01-01T02:42:24;7.15;;;3.85;;
75667;SDS011;64266;48.798;44.756;2023-01-01T02:44:54;7.10;;;3.80;;
75667;SDS011;64266;48.798;44.756;2023-01-01T02:47:23;10.25;;;4.20;;
75667;SDS011;64266;48.798;44.756;2023-01-01T02:49:54;8.27;;;4.00;;
75667;SDS011;64266;48.798;44.756;2023-01-01T02:55:15;8.45;;;4.30;;
75667;SDS011;64266;48.798;44.756;2023-01-01T02:58:06;8.43;;;3.95;;
75667;SDS011;64266;48.798;44.756;2023-01-01T03:00:58;6.03;;;3.40;;
75667;SDS011;64266;48.798;44.756;2023-01-01T03:03:40;7.57;;;3.83;;
75667;SDS011;64266;48.798;44.756;2023-01-01T03:06:21;7.00;;;3.72;;
75667;SDS011;64266;48.798;44.756;2023-01-01T03:11:36;7.97;;;4.00;;
75667;SDS011;64266;48.798;44.756;2023-01-01T03:16:58;8.85;;;4.75;;
75667;SDS011;64266;48.798;44.756;2023-01-01T03:19:30;10.05;;;4.85;;
75667;SDS011;64266;48.798;44.756;2023-01-01T03:22:08;8.75;;;4.10;;
75667;SDS011;64266;48.798;44.756;2023-01-01T03:24:39;9.27;;;4.80;;
75667;SDS011;64266;48.798;44.756;2023-01-01T03:27:12;7.32;;;4.43;;
75667;SDS011;64266;48.798;44.756;2023-01-01T03:29:42;6.95;;;3.97;;
75667;SDS011;64266;48.798;44.756;2023-01-01T03:32:10;7.82;;;4.10;;
75667;SDS011;64266;48.798;44.756;2023-01-01T03:34:46;9.63;;;4.10;;
75667;SDS011;64266;48.798;44.756;2023-01-01T03:37:21;8.63;;;4.38;;
75667;SDS011;64266;48.798;44.756;2023-01-01T03:39:52;8.88;;;4.43;;
75667;SDS011;64266;48.798;44.756;2023-01-01T03:42:24;10.20;;;4.55;;
75667;SDS011;64266;48.798;44.756;2023-01-01T03:44:59;8.55;;;4.70;;
75667;SDS011;64266;48.798;44.756;2023-01-01T03:47:31;8.98;;;4.90;;
75667;SDS011;64266;48.798;44.756;2023-01-01T03:49:58;9.98;;;4.13;;
75667;SDS011;64266;48.798;44.756;2023-01-01T03:55:30;8.30;;;3.60;;
75667;SDS011;64266;48.798;44.756;2023-01-01T03:58:12;8.13;;;4.13;;
75667;SDS011;64266;48.798;44.756;2023-01-01T04:01:03;8.18;;;4.40;;
75667;SDS011;64266;48.798;44.756;2023-01-01T04:03:51;8.60;;;4.25;;
75667;SDS011;64266;48.798;44.756;2023-01-01T04:06:17;10.70;;;4.53;;
75667;SDS011;64266;48.798;44.756;2023-01-01T04:08:44;8.85;;;4.57;;
75667;SDS011;64266;48.798;44.756;2023-01-01T04:11:15;9.68;;;4.05;;
75667;SDS011;64266;48.798;44.756;2023-01-01T04:14:04;9.52;;;4.20;;
75667;SDS011;64266;48.798;44.756;2023-01-01T04:16:30;8.43;;;3.97;;
75667;SDS011;64266;48.798;44.756;2023-01-01T04:18:56;10.90;;;4.28;;
75667;SDS011;64266;48.798;44.756;2023-01-01T04:21:22;7.93;;;4.05;;
75667;SDS011;64266;48.798;44.756;2023-01-01T04:23:48;9.35;;;4.30;;
75667;SDS011;64266;48.798;44.756;2023-01-01T04:26:14;10.82;;;4.07;;
75667;SDS011;64266;48.798;44.756;2023-01-01T04:28:40;12.75;;;3.92;;
75667;SDS011;64266;48.798;44.756;2023-01-01T04:31:07;9.02;;;3.85;;
75667;SDS011;64266;48.798;44.756;2023-01-01T04:33:33;7.85;;;4.05;;
75667;SDS011;64266;48.798;44.756;2023-01-01T04:36:03;8.40;;;3.88;;
75667;SDS011;64266;48.798;44.756;2023-01-01T04:38:34;7.32;;;3.67;;
75667;SDS011;64266;48.798;44.756;2023-01-01T04:41:02;9.05;;;4.20;;
75667;SDS011;64266;48.798;44.756;2023-01-01T04:43:29;9.90;;;4.15;;
75667;SDS011;64266;48.798;44.756;2023-01-01T04:46:00;9.90;;;4.15;;
75667;SDS011;64266;48.798;44.756;2023-01-01T04:48:28;9.30;;;4.68;;
75667;SDS011;64266;48.798;44.756;2023-01-01T04:51:00;10.13;;;4.43;;
75667;SDS011;64266;48.798;44.756;2023-01-01T04:53:29;10.10;;;4.55;;
75667;SDS011;64266;48.798;44.756;2023-01-01T04:58:29;9.77;;;4.57;;
75667;SDS011;64266;48.798;44.756;2023-01-01T05:00:55;9.35;;;4.60;;
75667;SDS011;64266;48.798;44.756;2023-01-01T05:03:21;8.38;;;4.28;;
75667;SDS011;64266;48.798;44.756;2023-01-01T05:05:46;10.43;;;4.72;;
75667;SDS011;64266;48.798;44.756;2023-01-01T05:08:14;10.02;;;4.95;;
75667;SDS011;64266;48.798;44.756;2023-01-01T05:10:40;10.55;;;5.20;;
75667;SDS011;64266;48.798;44.756;2023-01-01T05:13:06;18.75;;;4.53;;
75667;SDS011;64266;48.798;44.756;2023-01-01T05:15:36;9.32;;;4.38;;
75667;SDS011;64266;48.798;44.756;2023-01-01T05:18:02;9.35;;;4.70;;
75667;SDS011;64266;48.798;44.756;2023-01-01T05:20:28;9.57;;;4.38;;
75667;SDS011;64266;48.798;44.756;2023-01-01T05:22:55;8.98;;;4.65;;
75667;SDS011;64266;48.798;44.756;2023-01-01T05:25:20;11.23;;;4.72;;
75667;SDS011;64266;48.798;44.756;2023-01-01T05:27:47;10.00;;;4.60;;
75667;SDS011;64266;48.798;44.756;2023-01-01T05:30:13;11.38;;;4.28;;
75667;SDS011;64266;48.798;44.756;2023-01-01T05:32:39;8.65;;;4.57;;
75667;SDS011;64266;48.798;44.756;2023-01-01T05:35:05;7.72;;;4.15;;
75667;SDS011;64266;48.798;44.756;2023-01-01T05:37:32;8.20;;;4.22;;
75667;SDS011;64266;48.798;44.756;2023-01-01T05:39:59;9.63;;;4.32;;
75667;SDS011;64266;48.798;44.756;2023-01-01T05:42:25;8.40;;;4.18;;
75667;SDS011;64266;48.798;44.756;2023-01-01T05:44:51;7.75;;;4.30;;
75667;SDS011;64266;48.798;44.756;2023-01-01T05:47:16;8.88;;;4.05;;
75667;SDS011;64266;48.798;44.756;2023-01-01T05:49:43;8.52;;;4.22;;
75667;SDS011;64266;48.798;44.756;2023-01-01T05:52:09;9.80;;;3.35;;
75667;SDS011;64266;48.798;44.756;2023-01-01T05:54:34;9.10;;;4.90;;
75667;SDS011;64266;48.798;44.756;2023-01-01T05:57:00;9.10;;;4.15;;
75667;SDS011;64266;48.798;44.756;2023-01-01T05:59:26;9.25;;;4.45;;
75667;SDS011;64266;48.798;44.756;2023-01-01T06:01:52;9.88;;;4.30;;
75667;SDS011;64266;48.798;44.756;2023-01-01T06:04:18;8.27;;;4.00;;
75667;SDS011;64266;48.798;44.756;2023-01-01T06:06:43;10.77;;;4.38;;
75667;SDS011;64266;48.798;44.756;2023-01-01T06:09:09;9.25;;;4.10;;
75667;SDS011;64266;48.798;44.756;2023-01-01T06:11:36;8.70;;;4.25;;
75667;SDS011;64266;48.798;44.756;2023-01-01T06:14:01;8.02;;;4.50;;
75667;SDS011;64266;48.798;44.756;2023-01-01T06:16:28;7.78;;;3.85;;
75667;SDS011;64266;48.798;44.756;2023-01-01T06:18:55;9.05;;;4.05;;
75667;SDS011;64266;48.798;44.756;2023-01-01T06:21:25;10.40;;;4.00;;
75667;SDS011;64266;48.798;44.756;2023-01-01T06:23:53;8.85;;;4.63;;
75667;SDS011;64266;48.798;44.756;2023-01-01T06:26:31;9.50;;;4.32;;
75667;SDS011;64266;48.798;44.756;2023-01-01T06:28:59;9.23;;;4.57;;
75667;SDS011;64266;48.798;44.756;2023-01-01T06:31:26;10.55;;;4.55;;
75667;SDS011;64266;48.798;44.756;2023-01-01T06:33:53;10.82;;;4.50;;
75667;SDS011;64266;48.798;44.756;2023-01-01T06:36:19;11.13;;;4.95;;
75667;SDS011;64266;48.798;44.756;2023-01-01T06:38:48;10.00;;;4.95;;
75667;SDS011;64266;48.798;44.756;2023-01-01T06:41:16;10.90;;;5.18;;
75667;SDS011;64266;48.798;44.756;2023-01-01T06:43:44;10.48;;;4.93;;
75667;SDS011;64266;48.798;44.756;2023-01-01T06:46:18;11.63;;;5.88;;
75667;SDS011;64266;48.798;44.756;2023-01-01T06:48:48;10.98;;;6.07;;
75667;SDS011;64266;48.798;44.756;2023-01-01T06:51:17;12.00;;;5.55;;
75667;SDS011;64266;48.798;44.756;2023-01-01T06:53:47;12.15;;;6.22;;
75667;SDS011;64266;48.798;44.756;2023-01-01T06:56:14;10.93;;;5.80;;
75667;SDS011;64266;48.798;44.756;2023-01-01T06:58:41;13.98;;;6.05;;
75667;SDS011;64266;48.798;44.756;2023-01-01T07:01:15;13.73;;;6.15;;
75667;SDS011;64266;48.798;44.756;2023-01-01T07:03:43;14.63;;;6.63;;
75667;SDS011;64266;48.798;44.756;2023-01-01T07:06:14;13.13;;;6.75;;
75667;SDS011;64266;48.798;44.756;2023-01-01T07:08:40;17.90;;;8.50;;
75667;SDS011;64266;48.798;44.756;2023-01-01T07:11:05;15.82;;;7.97;;
75667;SDS011;64266;48.798;44.756;2023-01-01T07:13:31;13.27;;;7.03;;
75667;SDS011;64266;48.798;44.756;2023-01-01T07:15:58;14.32;;;7.53;;
75667;SDS011;64266;48.798;44.756;2023-01-01T07:18:25;16.55;;;7.10;;
75667;SDS011;64266;48.798;44.756;2023-01-01T07:20:55;16.40;;;7.53;;
75667;SDS011;64266;48.798;44.756;2023-01-01T07:23:26;20.33;;;8.48;;
75667;SDS011;64266;48.798;44.756;2023-01-01T07:25:53;17.73;;;8.98;;
75667;SDS011;64266;48.798;44.756;2023-01-01T07:28:20;13.85;;;7.78;;
75667;SDS011;64266;48.798;44.756;2023-01-01T07:30:47;18.23;;;8.38;;
75667;SDS011;64266;48.798;44.756;2023-01-01T07:33:14;16.30;;;8.65;;
75667;SDS011;64266;48.798;44.756;2023-01-01T07:35:42;19.08;;;9.43;;
75667;SDS011;64266;48.798;44.756;2023-01-01T07:38:11;18.17;;;9.30;;
75667;SDS011;64266;48.798;44.756;2023-01-01T07:40:37;18.27;;;8.80;;
75667;SDS011;64266;48.798;44.756;2023-01-01T07:43:03;20.15;;;10.15;;
75667;SDS011;64266;48.798;44.756;2023-01-01T07:45:29;18.70;;;9.57;;
75667;SDS011;64266;48.798;44.756;2023-01-01T07:47:56;17.45;;;9.50;;
75667;SDS011;64266;48.798;44.756;2023-01-01T07:50:24;18.38;;;10.57;;
75667;SDS011;64266;48.798;44.756;2023-01-01T07:52:53;20.88;;;10.57;;
75667;SDS011;64266;48.798;44.756;2023-01-01T07:55:19;19.30;;;10.02;;
75667;SDS011;64266;48.798;44.756;2023-01-01T07:57:46;20.33;;;10.57;;
75667;SDS011;64266;48.798;44.756;2023-01-01T08:00:13;20.35;;;10.27;;
75667;SDS011;64266;48.798;44.756;2023-01-01T08:02:42;22.38;;;10.80;;
75667;SDS011;64266;48.798;44.756;2023-01-01T08:05:08;21.55;;;11.38;;
75667;SDS011;64266;48.798;44.756;2023-01-01T08:07:34;16.35;;;9.48;;
75667;SDS011;64266;48.798;44.756;2023-01-01T08:10:00;20.13;;;11.05;;
75667;SDS011;64266;48.798;44.756;2023-01-01T08:12:26;28.55;;;14.00;;
75667;SDS011;64266;48.798;44.756;2023-01-01T08:14:52;22.95;;;11.68;;
75667;SDS011;64266;48.798;44.756;2023-01-01T08:17:18;24.88;;;12.32;;
75667;SDS011;64266;48.798;44.756;2023-01-01T08:19:44;24.38;;;12.55;;
75667;SDS011;64266;48.798;44.756;2023-01-01T08:22:11;24.88;;;11.45;;
75667;SDS011;64266;48.798;44.756;2023-01-01T08:24:37;20.70;;;11.65;;
75667;SDS011;64266;48.798;44.756;2023-01-01T08:27:03;22.92;;;12.52;;
75667;SDS011;64266;48.798;44.756;2023-01-01T08:29:29;22.90;;;11.80;;
75667;SDS011;64266;48.798;44.756;2023-01-01T08:31:54;20.80;;;11.32;;
75667;SDS011;64266;48.798;44.756;2023-01-01T08:34:20;20.20;;;11.38;;
75667;SDS011;64266;48.798;44.756;2023-01-01T08:36:46;20.38;;;11.23;;
75667;SDS011;64266;48.798;44.756;2023-01-01T08:39:12;22.05;;;11.45;;
75667;SDS011;64266;48.798;44.756;2023-01-01T08:41:38;22.35;;;12.30;;
75667;SDS011;64266;48.798;44.756;2023-01-01T08:44:04;23.98;;;11.90;;
75667;SDS011;64266;48.798;44.756;2023-01-01T08:46:29;21.48;;;12.00;;
75667;SDS011;64266;48.798;44.756;2023-01-01T08:48:56;21.95;;;11.10;;
75667;SDS011;64266;48.798;44.756;2023-01-01T08:51:22;23.80;;;12.80;;
75667;SDS011;64266;48.798;44.756;2023-01-01T08:53:48;22.73;;;12.40;;
75667;SDS011;64266;48.798;44.756;2023-01-01T08:56:14;20.52;;;11.23;;
75667;SDS011;64266;48.798;44.756;2023-01-01T08:58:40;23.77;;;13.48;;
75667;SDS011;64266;48.798;44.756;2023-01-01T09:01:07;20.80;;;11.23;;
75667;SDS011;64266;48.798;44.756;2023-01-01T09:03:34;24.13;;;13.13;;
75667;SDS011;64266;48.798;44.756;2023-01-01T09:06:00;27.27;;;13.73;;
75667;SDS011;64266;48.798;44.756;2023-01-01T09:08:26;25.42;;;13.77;;
75667;SDS011;64266;48.798;44.756;2023-01-01T09:10:52;22.80;;;13.40;;
75667;SDS011;64266;48.798;44.756;2023-01-01T09:13:22;24.33;;;12.50;;
75667;SDS011;64266;48.798;44.756;2023-01-01T09:15:47;24.77;;;14.27;;
75667;SDS011;64266;48.798;44.756;2023-01-01T09:18:13;26.15;;;14.20;;
75667;SDS011;64266;48.798;44.756;2023-01-01T09:20:39;25.33;;;12.88;;
75667;SDS011;64266;48.798;44.756;2023-01-01T09:23:05;25.15;;;14.07;;
75667;SDS011;64266;48.798;44.756;2023-01-01T09:25:33;24.35;;;12.77;;
75667;SDS011;64266;48.798;44.756;2023-01-01T09:28:03;25.50;;;13.13;;
75667;SDS011;64266;48.798;44.756;2023-01-01T09:30:31;24.48;;;14.48;;
75667;SDS011;64266;48.798;44.756;2023-01-01T09:32:58;28.80;;;13.90;;
75667;SDS011;64266;48.798;44.756;2023-01-01T09:35:24;26.15;;;13.57;;
75667;SDS011;64266;48.798;44.756;2023-01-01T09:37:50;29.00;;;13.93;;
75667;SDS011;64266;48.798;44.756;2023-01-01T09:43:19;26.90;;;15.10;;
75667;SDS011;64266;48.798;44.756;2023-01-01T09:46:01;26.80;;;13.98;;
75667;SDS011;64266;48.798;44.756;2023-01-01T09:48:30;29.67;;;15.57;;
75667;SDS011;64266;48.798;44.756;2023-01-01T09:50:58;28.80;;;14.68;;
75667;SDS011;64266;48.798;44.756;2023-01-01T09:54:11;28.08;;;15.23;;
75667;SDS011;64266;48.798;44.756;2023-01-01T09:56:16;28.52;;;14.45;;
75667;SDS011;64266;48.798;44.756;2023-01-01T09:58:47;34.33;;;14.73;;
75667;SDS011;64266;48.798;44.756;2023-01-01T10:06:43;32.97;;;15.68;;
75667;SDS011;64266;48.798;44.756;2023-01-01T10:12:33;28.88;;;15.82;;
75667;SDS011;64266;48.798;44.756;2023-01-01T10:15:14;31.02;;;15.63;;
75667;SDS011;64266;48.798;44.756;2023-01-01T10:18:15;31.73;;;15.40;;
75667;SDS011;64266;48.798;44.756;2023-01-01T10:20:46;34.55;;;16.33;;
75667;SDS011;64266;48.798;44.756;2023-01-01T10:23:30;34.33;;;17.23;;
75667;SDS011;64266;48.798;44.756;2023-01-01T10:26:01;31.95;;;14.70;;
75667;SDS011;64266;48.798;44.756;2023-01-01T10:29:23;33.65;;;15.90;;
75667;SDS011;64266;48.798;44.756;2023-01-01T10:31:47;34.90;;;16.13;;
75667;SDS011;64266;48.798;44.756;2023-01-01T10:34:18;36.20;;;17.90;;
75667;SDS011;64266;48.798;44.756;2023-01-01T10:36:56;35.97;;;16.67;;
75667;SDS011;64266;48.798;44.756;2023-01-01T10:39:24;39.55;;;16.10;;
75667;SDS011;64266;48.798;44.756;2023-01-01T10:41:51;39.05;;;18.15;;
75667;SDS011;64266;48.798;44.756;2023-01-01T10:44:19;46.58;;;19.77;;
75667;SDS011;64266;48.798;44.756;2023-01-01T10:46:58;36.67;;;17.17;;
75667;SDS011;64266;48.798;44.756;2023-01-01T10:49:35;33.92;;;16.45;;
75667;SDS011;64266;48.798;44.756;2023-01-01T10:52:23;39.05;;;18.00;;
75667;SDS011;64266;48.798;44.756;2023-01-01T10:55:01;38.25;;;17.08;;
75667;SDS011;64266;48.798;44.756;2023-01-01T10:57:29;40.05;;;18.45;;
75667;SDS011;64266;48.798;44.756;2023-01-01T11:02:43;39.08;;;17.88;;
75667;SDS011;64266;48.798;44.756;2023-01-01T11:05:19;37.78;;;17.23;;
75667;SDS011;64266;48.798;44.756;2023-01-01T11:07:46;47.75;;;19.75;;
75667;SDS011;64266;48.798;44.756;2023-01-01T11:10:17;41.65;;;17.48;;
75667;SDS011;64266;48.798;44.756;2023-01-01T11:12:48;41.42;;;18.75;;
75667;SDS011;64266;48.798;44.756;2023-01-01T11:15:23;43.60;;;19.35;;
75667;SDS011;64266;48.798;44.756;2023-01-01T11:18:13;46.95;;;19.05;;
75667;SDS011;64266;48.798;44.756;2023-01-01T11:20:41;43.45;;;20.23;;
75667;SDS011;64266;48.798;44.756;2023-01-01T11:23:18;46.83;;;20.45;;
75667;SDS011;64266;48.798;44.756;2023-01-01T11:28:22;47.45;;;19.92;;
75667;SDS011;64266;48.798;44.756;2023-01-01T11:30:58;58.05;;;21.50;;
75667;SDS011;64266;48.798;44.756;2023-01-01T11:33:52;46.75;;;19.73;;
75667;SDS011;64266;48.798;44.756;2023-01-01T11:36:23;45.03;;;19.80;;
75667;SDS011;64266;48.798;44.756;2023-01-01T11:38:51;47.80;;;19.80;;
75667;SDS011;64266;48.798;44.756;2023-01-01T11:41:40;48.72;;;19.95;;
75667;SDS011;64266;48.798;44.756;2023-01-01T11:44:09;53.30;;;22.40;;
75667;SDS011;64266;48.798;44.756;2023-01-01T11:46:39;56.95;;;22.30;;
75667;SDS011;64266;48.798;44.756;2023-01-01T11:49:14;63.35;;;21.45;;
75667;SDS011;64266;48.798;44.756;2023-01-01T11:54:27;44.88;;;18.52;;
75667;SDS011;64266;48.798;44.756;2023-01-01T11:57:06;46.78;;;18.90;;
75667;SDS011;64266;48.798;44.756;2023-01-01T11:59:41;53.25;;;19.45;;
75667;SDS011;64266;48.798;44.756;2023-01-01T12:03:22;43.90;;;18.77;;
75667;SDS011;64266;48.798;44.756;2023-01-01T12:05:23;48.80;;;19.27;;
75667;SDS011;64266;48.798;44.756;2023-01-01T12:07:58;41.63;;;16.85;;
75667;SDS011;64266;48.798;44.756;2023-01-01T12:10:33;54.47;;;18.65;;
75667;SDS011;64266;48.798;44.756;2023-01-01T12:13:21;63.03;;;20.50;;
75667;SDS011;64266;48.798;44.756;2023-01-01T12:21:42;43.53;;;16.52;;
75667;SDS011;64266;48.798;44.756;2023-01-01T12:24:11;44.80;;;16.85;;
75667;SDS011;64266;48.798;44.756;2023-01-01T12:32:13;34.88;;;15.02;;
75667;SDS011;64266;48.798;44.756;2023-01-01T12:43:04;37.08;;;14.45;;
75667;SDS011;64266;48.798;44.756;2023-01-01T12:52:24;29.73;;;13.50;;
75667;SDS011;64266;48.798;44.756;2023-01-01T12:57:39;30.52;;;12.43;;
75667;SDS011;64266;48.798;44.756;2023-01-01T13:00:20;33.72;;;13.23;;
75667;SDS011;64266;48.798;44.756;2023-01-01T13:03:05;30.48;;;12.68;;
75667;SDS011;64266;48.798;44.756;2023-01-01T13:05:41;30.65;;;13.73;;
75667;SDS011;64266;48.798;44.756;2023-01-01T13:08:10;28.20;;;12.98;;
75667;SDS011;64266;48.798;44.756;2023-01-01T13:10:37;26.05;;;11.88;;
75667;SDS011;64266;48.798;44.756;2023-01-01T13:13:06;26.70;;;12.00;;
75667;SDS011;64266;48.798;44.756;2023-01-01T13:20:41;30.80;;;12.80;;
75667;SDS011;64266;48.798;44.756;2023-01-01T13:32:12;29.77;;;12.38;;
75667;SDS011;64266;48.798;44.756;2023-01-01T13:45:23;23.30;;;11.23;;
75667;SDS011;64266;48.798;44.756;2023-01-01T13:55:51;25.70;;;11.60;;
75667;SDS011;64266;48.798;44.756;2023-01-01T14:01:25;21.27;;;10.95;;
75667;SDS011;64266;48.798;44.756;2023-01-01T14:04:28;21.13;;;10.73;;
75667;SDS011;64266;48.798;44.756;2023-01-01T14:07:02;21.20;;;11.07;;
75667;SDS011;64266;48.798;44.756;2023-01-01T14:09:49;23.15;;;12.13;;
75667;SDS011;64266;48.798;44.756;2023-01-01T14:12:16;21.88;;;11.80;;
75667;SDS011;64266;48.798;44.756;2023-01-01T14:14:43;27.25;;;12.38;;
75667;SDS011;64266;48.798;44.756;2023-01-01T14:17:10;28.55;;;12.32;;
75667;SDS011;64266;48.798;44.756;2023-01-01T14:19:39;23.88;;;11.75;;
75667;SDS011;64266;48.798;44.756;2023-01-01T14:22:06;22.25;;;11.35;;
75667;SDS011;64266;48.798;44.756;2023-01-01T14:24:42;25.13;;;12.13;;
75667;SDS011;64266;48.798;44.756;2023-01-01T14:27:14;26.15;;;12.73;;
75667;SDS011;64266;48.798;44.756;2023-01-01T14:29:45;22.02;;;12.57;;
75667;SDS011;64266;48.798;44.756;2023-01-01T14:32:14;20.65;;;11.25;;
75667;SDS011;64266;48.798;44.756;2023-01-01T14:34:45;24.25;;;11.32;;
75667;SDS011;64266;48.798;44.756;2023-01-01T14:37:18;20.70;;;10.65;;
75667;SDS011;64266;48.798;44.756;2023-01-01T14:43:04;21.60;;;11.90;;
75667;SDS011;64266;48.798;44.756;2023-01-01T14:45:35;22.17;;;11.50;;
75667;SDS011;64266;48.798;44.756;2023-01-01T14:48:06;24.30;;;13.05;;
75667;SDS011;64266;48.798;44.756;2023-01-01T14:50:45;22.65;;;11.93;;
75667;SDS011;64266;48.798;44.756;2023-01-01T14:53:14;20.60;;;11.98;;
75667;SDS011;64266;48.798;44.756;2023-01-01T14:55:46;22.15;;;12.00;;
75667;SDS011;64266;48.798;44.756;2023-01-01T14:58:21;24.83;;;12.38;;
75667;SDS011;64266;48.798;44.756;2023-01-01T15:00:50;23.75;;;13.18;;
75667;SDS011;64266;48.798;44.756;2023-01-01T15:03:17;24.55;;;13.05;;
75667;SDS011;64266;48.798;44.756;2023-01-01T15:05:59;25.30;;;13.40;;
75667;SDS011;64266;48.798;44.756;2023-01-01T15:08:27;26.42;;;13.20;;
75667;SDS011;64266;48.798;44.756;2023-01-01T15:10:53;24.00;;;12.32;;
75667;SDS011;64266;48.798;44.756;2023-01-01T15:13:22;28.48;;;12.93;;
75667;SDS011;64266;48.798;44.756;2023-01-01T15:15:51;25.88;;;13.02;;
75667;SDS011;64266;48.798;44.756;2023-01-01T15:18:38;27.30;;;13.13;;
75667;SDS011;64266;48.798;44.756;2023-01-01T15:21:09;24.67;;;12.50;;
75667;SDS011;64266;48.798;44.756;2023-01-01T15:23:37;22.05;;;12.23;;
75667;SDS011;64266;48.798;44.756;2023-01-01T15:26:07;28.23;;;13.38;;
75667;SDS011;64266;48.798;44.756;2023-01-01T15:28:34;30.52;;;13.70;;
75667;SDS011;64266;48.798;44.756;2023-01-01T15:31:02;29.00;;;14.20;;
75667;SDS011;64266;48.798;44.756;2023-01-01T15:33:28;25.23;;;12.93;;
75667;SDS011;64266;48.798;44.756;2023-01-01T15:35:55;25.50;;;12.25;;
75667;SDS011;64266;48.798;44.756;2023-01-01T15:38:26;25.17;;;12.18;;
75667;SDS011;64266;48.798;44.756;2023-01-01T15:40:58;25.10;;;13.15;;
75667;SDS011;64266;48.798;44.756;2023-01-01T15:43:26;22.50;;;11.73;;
75667;SDS011;64266;48.798;44.756;2023-01-01T15:45:59;21.60;;;11.52;;
75667;SDS011;64266;48.798;44.756;2023-01-01T15:48:36;25.23;;;13.20;;
75667;SDS011;64266;48.798;44.756;2023-01-01T15:51:11;30.40;;;12.05;;
75667;SDS011;64266;48.798;44.756;2023-01-01T15:56:19;23.77;;;12.00;;
75667;SDS011;64266;48.798;44.756;2023-01-01T16:01:21;26.95;;;12.07;;
75667;SDS011;64266;48.798;44.756;2023-01-01T16:03:49;23.20;;;11.88;;
75667;SDS011;64266;48.798;44.756;2023-01-01T16:08:45;28.90;;;13.73;;
75667;SDS011;64266;48.798;44.756;2023-01-01T16:11:11;25.88;;;12.30;;
75667;SDS011;64266;48.798;44.756;2023-01-01T16:13:38;22.88;;;12.02;;
75667;SDS011;64266;48.798;44.756;2023-01-01T16:16:05;24.00;;;12.05;;
75667;SDS011;64266;48.798;44.756;2023-01-01T16:18:51;26.17;;;12.65;;
75667;SDS011;64266;48.798;44.756;2023-01-01T16:21:17;24.20;;;11.65;;
75667;SDS011;64266;48.798;44.756;2023-01-01T16:23:44;20.85;;;12.00;;
75667;SDS011;64266;48.798;44.756;2023-01-01T16:26:09;22.33;;;12.10;;
75667;SDS011;64266;48.798;44.756;2023-01-01T16:28:36;22.55;;;12.07;;
75667;SDS011;64266;48.798;44.756;2023-01-01T16:31:01;22.35;;;13.02;;
75667;SDS011;64266;48.798;44.756;2023-01-01T16:33:28;24.38;;;12.30;;
75667;SDS011;64266;48.798;44.756;2023-01-01T16:35:54;24.63;;;12.57;;
75667;SDS011;64266;48.798;44.756;2023-01-01T16:38:20;27.17;;;13.10;;